Celestine, IN (47521)

8:25 PM EDT on July 23, 2014 (GMT -0400)
Kellerville (KINDUBOI2) Elev 643 ft | 38.48 °N, 86.83 °W | Change Station

Current weather conditions updated 1 minute ago

Clear
Clear
73.0 °F
Feels Like 70 °F
N
0.0
Wind Variable Wind from NNW
Gusts 1.0 mph

Tomorrow is forecast to be Cooler than today.

Today
High -- | Low -- °F
--% Chance of Precip.
Yesterday
High -- | Low -- °F
Precip. -- in
6:41 AM 9:04 PM
Waning Crescent, 8% visible
Pressure 29.99 in
Visibility 7.0 miles
Clouds Mostly Cloudy 1200 ft
Mostly Cloudy 2900 ft
Heat Index 70 °F
Dew Point 70 °F
Humidity 92%
Rainfall 0.04 in
Snow Depth Not available.
UV 0 out of 12
Pollen 4.70 out of 12
Air Quality Not available.
Flu Activity Not available.
METAR KHNB 240015Z AUTO 01010G16KT 7SM BKN012 BKN029 24/21 A2999 RMK AO1

More Conditions Fewer Conditions

Pressure 29.99 in
Visibility 7.0 miles
Clouds Mostly Cloudy 1200 ft
Mostly Cloudy 2900 ft
Heat Index 70 °F
Dew Point 70 °F
Humidity 92%
Rainfall 0.04 in
Snow Depth Not available.
UV 0 out of 12
Pollen 4.70 out of 12
Air Quality Not available.
Flu Activity Not available.
METAR KHNB 240015Z AUTO 01010G16KT 7SM BKN012 BKN029 24/21 A2999 RMK AO1

More Conditions Fewer Conditions

10-Day Weather Forecast

Almanac

Astronomy

Jul. 23, 2014 Rise Set
Actual Time 6:41 AM EDT 9:04 PM EDT
Civil Twilight 6:11 AM EDT 9:35 PM EDT
Nautical Twilight 5:34 AM EDT 10:12 PM EDT
Astronomical Twilight 4:52 AM EDT 10:53 PM EDT
Moon 3:59 AM EDT (7/23) 6:33 PM EDT (7/23)
Length of Visible Light 15h 23m
Length of Day
14h 23m
Tomorrow will be 1m 36s shorter.
Waning Crescent, 8% of the Moon is Illuminated
Today
Waning Crescent
Jul 26
New
Aug 3
First Quarter
Aug 10
Full
Aug 17
Last Quarter

Today's Extremes

State Highs State Lows

Community

WunderPhotos

Upload Photos

1,736,827 photos uploaded!

Nearby

Snow Depth

Station Depth Elevation
No new snow has been reported.

Earthquake Activity

City Distance Mag. Time & Date
No recent earthquake activity has been reported nearby.
Minimum magnitude displayed is 2.5.

Coastal Water Temperatures

Place Temperature
No Stations Reporting

Nearby Weather Stations

Station Location Temp. Heat Index Dew Point Humidity Wind Precip. Elev Updated Type
Kellerville, Dubois, IN 73.0 °F 70 °F 70 °F 92% NNW  at  0.0 mph 0.00 in / hr 643 ft 8:24 PM EDT Normal
RAWS IIC SOUTH PORTABLE IN, Taswell, IN 78 °F 80 °F 69 °F 75% NNW  at  2 mph 0.00 in / hr 882 ft 7:46 PM EDT MADIS
Rusk Indiana, Shoals, IN 73.8 °F 72 °F 70 °F 89% NNE  at  1.7 mph 0.00 in / hr 669 ft 8:25 PM EDT Rapid Fire
Babcock Addition, Paoli, IN 76.7 °F 78 °F 71 °F 83% North  at  0.0 mph 0.00 in / hr 679 ft 8:14 PM EDT Normal
RAWS IIC NORTH PORTABLE IN, Shoals, IN 73 °F 70 °F 70 °F 91% NNW  at  2 mph 0.00 in / hr 729 ft 7:46 PM EDT MADIS

Show More Stations Show Fewer Stations